Time;durP1;ratioP1;P1;durP2;ratioP2;P2;SDS_P1;SDS_P2;PMS_P1;PMS_P2;Temp;Humidity;BMP_temperature;BMP_pressure;BME280_temperature;BME280_humidity;BME280_pressure;Samples;Min_cycle;Max_cycle;Signal;HPM_P1;HPM_P2
2022/08/21 00:00:08;;;;;;;7.03;6.40;;;20.70;99.90;;;;;;5049705;28;20812;-68
2022/08/21 00:02:35;;;;;;;6.67;6.13;;;20.70;99.90;;;;;;5049540;28;20210;-68
2022/08/21 00:05:03;;;;;;;7.17;6.67;;;20.70;99.90;;;;;;5050142;28;20212;-68
2022/08/21 00:07:29;;;;;;;6.43;6.03;;;20.70;99.90;;;;;;5049949;28;20607;-68
2022/08/21 00:09:57;;;;;;;6.23;5.83;;;20.70;99.90;;;;;;5048783;28;20204;-68
2022/08/21 00:12:24;;;;;;;7.07;6.37;;;20.70;99.90;;;;;;5049186;28;20210;-68
2022/08/21 00:14:52;;;;;;;6.33;5.83;;;20.70;99.90;;;;;;5049864;28;20255;-68
2022/08/21 00:17:19;;;;;;;6.20;5.70;;;20.60;99.90;;;;;;5049420;28;20201;-69
2022/08/21 00:19:45;;;;;;;6.17;5.67;;;20.60;99.90;;;;;;5049930;28;20208;-69
2022/08/21 00:22:12;;;;;;;6.80;6.07;;;20.60;99.90;;;;;;5049256;28;20298;-69
2022/08/21 00:24:39;;;;;;;6.40;5.93;;;20.60;99.90;;;;;;5049443;28;20685;-69
2022/08/21 00:27:06;;;;;;;8.37;6.03;;;20.60;99.90;;;;;;5049768;28;20287;-69
2022/08/21 00:29:33;;;;;;;6.40;5.80;;;20.60;99.90;;;;;;5049747;28;20482;-69
2022/08/21 00:32:01;;;;;;;6.23;5.63;;;20.50;99.90;;;;;;5051886;28;20211;-69
2022/08/21 00:34:27;;;;;;;6.20;5.60;;;20.50;99.90;;;;;;5048610;28;20204;-69
2022/08/21 00:36:54;;;;;;;6.20;5.70;;;20.50;99.90;;;;;;5049301;28;20290;-69
2022/08/21 00:39:21;;;;;;;5.43;5.03;;;20.50;99.90;;;;;;5049264;28;20208;-69
2022/08/21 00:41:48;;;;;;;6.20;5.80;;;20.50;99.90;;;;;;5048588;28;20235;-70
2022/08/21 00:44:16;;;;;;;6.20;5.67;;;20.50;99.90;;;;;;5049320;28;20214;-69
2022/08/21 00:46:44;;;;;;;5.77;5.40;;;20.50;99.90;;;;;;5049210;28;20212;-69
2022/08/21 00:49:13;;;;;;;6.40;5.80;;;20.40;99.90;;;;;;5049287;28;20227;-69
2022/08/21 00:51:44;;;;;;;5.90;5.40;;;20.40;99.90;;;;;;5049057;28;20207;-71
2022/08/21 00:54:13;;;;;;;5.83;5.33;;;20.40;99.90;;;;;;5049017;28;20262;-70
2022/08/21 00:56:40;;;;;;;6.40;5.90;;;20.40;99.90;;;;;;5048608;28;20247;-70
2022/08/21 00:59:08;;;;;;;6.00;5.60;;;20.40;99.90;;;;;;5048927;28;20561;-70
2022/08/21 01:01:36;;;;;;;7.47;5.70;;;20.40;99.90;;;;;;5048653;28;20204;-70
2022/08/21 01:04:04;;;;;;;5.90;5.60;;;20.40;99.90;;;;;;5048961;28;20299;-69
2022/08/21 01:06:32;;;;;;;5.70;5.10;;;20.40;99.90;;;;;;5048552;28;20212;-70
2022/08/21 01:08:59;;;;;;;5.93;5.40;;;20.30;99.90;;;;;;5048427;28;20204;-69
2022/08/21 01:11:26;;;;;;;6.17;5.60;;;20.30;99.90;;;;;;5048567;28;20208;-69
2022/08/21 01:13:54;;;;;;;6.27;5.67;;;20.30;99.90;;;;;;5040849;28;20204;-69
2022/08/21 01:16:23;;;;;;;5.57;5.17;;;20.30;99.90;;;;;;5068097;28;20230;-68
2022/08/21 01:18:51;;;;;;;5.80;5.23;;;20.20;99.90;;;;;;5063691;28;20254;-68
2022/08/21 01:21:21;;;;;;;5.77;5.30;;;20.20;99.90;;;;;;5048009;28;20204;-68
2022/08/21 01:23:50;;;;;;;5.67;5.30;;;20.20;99.90;;;;;;5047979;28;20204;-68
2022/08/21 01:26:20;;;;;;;6.27;5.67;;;20.20;99.90;;;;;;5048704;28;20208;-68
2022/08/21 01:28:52;;;;;;;5.50;5.10;;;20.20;99.90;;;;;;5048205;28;20231;-68
2022/08/21 01:31:20;;;;;;;7.60;5.80;;;20.10;99.90;;;;;;5047910;28;20220;-68
2022/08/21 01:33:47;;;;;;;6.10;5.50;;;20.10;99.90;;;;;;5048363;28;20224;-68
2022/08/21 01:36:14;;;;;;;6.00;5.47;;;20.20;99.90;;;;;;5047219;28;20231;-68
2022/08/21 01:38:42;;;;;;;6.20;5.70;;;20.20;99.90;;;;;;5047714;28;20199;-68
2022/08/21 01:41:10;;;;;;;6.30;5.80;;;20.10;99.90;;;;;;5047906;28;20346;-68
2022/08/21 01:43:36;;;;;;;6.17;5.57;;;20.10;99.90;;;;;;5047483;28;20208;-68
2022/08/21 01:46:06;;;;;;;5.60;5.10;;;20.10;99.90;;;;;;5047062;28;20861;-68
2022/08/21 01:48:33;;;;;;;7.13;5.73;;;20.10;99.90;;;;;;5047626;28;20545;-68
2022/08/21 01:51:00;;;;;;;5.90;5.40;;;20.10;99.90;;;;;;5047782;28;20290;-68
2022/08/21 01:53:27;;;;;;;5.13;4.83;;;20.00;99.90;;;;;;5046925;28;20196;-68
2022/08/21 01:55:55;;;;;;;5.30;4.80;;;20.00;99.90;;;;;;5047422;28;20694;-68
2022/08/21 01:58:22;;;;;;;6.53;5.60;;;20.00;99.90;;;;;;5047769;28;20220;-68
2022/08/21 02:00:49;;;;;;;5.13;4.83;;;20.00;99.90;;;;;;5047719;28;20266;-69
2022/08/21 02:03:16;;;;;;;5.83;5.10;;;20.00;99.90;;;;;;5047313;28;20200;-68
2022/08/21 02:05:43;;;;;;;4.87;4.57;;;20.00;99.90;;;;;;5047662;28;20200;-68
2022/08/21 02:08:09;;;;;;;6.73;4.80;;;20.00;99.90;;;;;;5047830;28;20581;-68
2022/08/21 02:10:36;;;;;;;5.23;4.67;;;20.00;99.90;;;;;;5047695;28;20208;-69
2022/08/21 02:13:07;;;;;;;4.63;4.33;;;20.00;99.90;;;;;;5039779;28;20764;-69
2022/08/21 02:15:34;;;;;;;5.03;4.50;;;19.90;99.90;;;;;;5027704;28;20311;-69
2022/08/21 02:18:02;;;;;;;4.53;4.13;;;19.80;99.90;;;;;;5044246;28;20204;-70
2022/08/21 02:20:32;;;;;;;4.60;4.20;;;19.90;99.90;;;;;;5047355;28;20658;-70
2022/08/21 02:22:58;;;;;;;5.00;3.97;;;19.90;99.90;;;;;;5047819;28;20216;-69
2022/08/21 02:25:27;;;;;;;7.50;4.10;;;19.80;99.90;;;;;;5047511;28;20216;-69
2022/08/21 02:27:55;;;;;;;5.73;4.10;;;19.80;99.90;;;;;;5047878;28;20230;-69
2022/08/21 02:30:28;;;;;;;3.73;3.43;;;19.80;99.90;;;;;;5047211;28;20679;-68
2022/08/21 02:32:56;;;;;;;3.90;3.60;;;19.70;99.90;;;;;;5049954;28;20232;-69
2022/08/21 02:35:23;;;;;;;5.07;3.93;;;19.70;99.90;;;;;;5051604;28;20289;-69
2022/08/21 02:37:53;;;;;;;6.93;3.77;;;19.70;99.90;;;;;;5051814;28;20208;-69
2022/08/21 02:40:23;;;;;;;5.50;3.67;;;19.70;99.90;;;;;;5051389;28;20199;-68
2022/08/21 02:42:50;;;;;;;4.33;3.40;;;19.70;99.90;;;;;;5051075;28;20735;-68
2022/08/21 02:45:18;;;;;;;5.13;4.00;;;19.70;99.90;;;;;;5051610;28;20218;-69
2022/08/21 02:47:49;;;;;;;3.67;3.43;;;19.70;99.90;;;;;;5051663;28;20216;-68
2022/08/21 02:50:20;;;;;;;4.60;3.50;;;19.60;99.90;;;;;;5050970;28;20223;-68
2022/08/21 02:52:47;;;;;;;6.10;3.67;;;19.60;99.90;;;;;;5051028;28;20207;-70
2022/08/21 02:55:14;;;;;;;3.90;3.60;;;19.60;99.90;;;;;;5051207;28;20208;-69
2022/08/21 02:57:40;;;;;;;4.50;3.30;;;19.60;99.90;;;;;;5051310;28;20208;-69
2022/08/21 03:00:10;;;;;;;4.57;3.93;;;19.50;99.90;;;;;;5050880;28;20204;-69
2022/08/21 03:02:37;;;;;;;4.37;3.67;;;19.50;99.90;;;;;;5050541;28;20720;-68
2022/08/21 03:05:06;;;;;;;7.07;3.40;;;19.50;99.90;;;;;;5051038;28;20207;-68
2022/08/21 03:07:33;;;;;;;3.80;3.60;;;19.50;99.90;;;;;;5050805;28;20216;-68
2022/08/21 03:10:00;;;;;;;4.40;3.73;;;19.50;99.90;;;;;;5051517;28;20219;-69
2022/08/21 03:12:27;;;;;;;4.03;3.73;;;19.50;99.90;;;;;;5050486;28;20674;-69
2022/08/21 03:14:54;;;;;;;6.03;3.97;;;19.50;99.90;;;;;;5051007;28;20211;-69
2022/08/21 03:17:20;;;;;;;6.13;3.40;;;19.50;99.90;;;;;;5049891;28;20773;-69
2022/08/21 03:19:47;;;;;;;3.87;3.43;;;19.50;99.90;;;;;;5050591;28;20572;-69
2022/08/21 03:22:15;;;;;;;5.13;3.63;;;19.40;99.90;;;;;;5050295;28;20204;-69
2022/08/21 03:24:42;;;;;;;4.47;3.53;;;19.40;99.90;;;;;;5050833;28;20208;-69
2022/08/21 03:27:09;;;;;;;6.07;3.40;;;19.40;99.90;;;;;;5051037;28;20219;-69
2022/08/21 03:29:36;;;;;;;4.27;3.03;;;19.40;99.90;;;;;;5050061;28;20210;-69
2022/08/21 03:32:03;;;;;;;6.27;3.43;;;19.40;99.90;;;;;;5050142;28;20200;-69
2022/08/21 03:34:30;;;;;;;5.70;3.80;;;19.40;99.90;;;;;;5050397;28;20214;-70
2022/08/21 03:36:57;;;;;;;4.30;3.30;;;19.40;99.90;;;;;;5050496;28;20231;-69
2022/08/21 03:39:25;;;;;;;6.83;3.50;;;19.40;99.90;;;;;;5049907;28;20266;-69
2022/08/21 03:41:52;;;;;;;4.83;3.10;;;19.30;99.90;;;;;;5049961;28;20765;-69
2022/08/21 03:44:19;;;;;;;4.27;3.40;;;19.30;99.90;;;;;;5032039;28;20274;-69
2022/08/21 03:46:46;;;;;;;3.87;3.17;;;19.40;99.90;;;;;;5039128;28;20722;-70
2022/08/21 03:49:13;;;;;;;4.93;3.50;;;19.30;99.90;;;;;;5049743;28;20208;-70
2022/08/21 03:51:40;;;;;;;4.60;3.10;;;19.30;99.90;;;;;;5050120;28;20200;-70
2022/08/21 03:54:07;;;;;;;4.07;2.70;;;19.30;99.90;;;;;;5050291;28;20204;-71
2022/08/21 03:56:35;;;;;;;8.00;3.60;;;19.30;99.90;;;;;;5050053;28;20247;-70
2022/08/21 03:59:02;;;;;;;4.27;3.23;;;19.30;99.90;;;;;;5050223;28;20236;-71
2022/08/21 04:01:29;;;;;;;3.70;3.40;;;19.20;99.90;;;;;;5049662;28;20291;-70
2022/08/21 04:03:56;;;;;;;3.57;3.27;;;19.20;99.90;;;;;;5049976;28;20208;-70
2022/08/21 04:06:23;;;;;;;4.70;2.90;;;19.20;99.90;;;;;;5049786;28;20231;-68
2022/08/21 04:08:50;;;;;;;5.33;2.90;;;19.10;99.90;;;;;;5049522;28;20208;-68
2022/08/21 04:11:16;;;;;;;3.80;2.97;;;19.20;99.90;;;;;;5049783;28;20205;-69
2022/08/21 04:13:45;;;;;;;4.97;3.50;;;19.20;99.90;;;;;;5049236;28;20196;-69
2022/08/21 04:16:12;;;;;;;4.53;3.03;;;19.10;99.90;;;;;;5049644;28;20231;-69
2022/08/21 04:18:39;;;;;;;6.70;3.47;;;19.10;99.90;;;;;;5049502;28;20207;-70
2022/08/21 04:21:09;;;;;;;5.13;2.83;;;19.10;99.90;;;;;;5049564;28;20208;-70
2022/08/21 04:23:36;;;;;;;3.33;3.00;;;19.10;99.90;;;;;;5049508;28;20207;-70
2022/08/21 04:26:06;;;;;;;9.50;3.50;;;19.00;99.90;;;;;;5049493;28;20208;-70
2022/08/21 04:28:34;;;;;;;4.53;3.00;;;19.00;99.90;;;;;;5049645;28;20212;-70
2022/08/21 04:31:04;;;;;;;10.83;3.50;;;19.00;99.90;;;;;;5049547;28;20204;-70
2022/08/21 04:33:31;;;;;;;4.63;3.27;;;19.00;99.90;;;;;;5049321;28;20220;-68
2022/08/21 04:35:58;;;;;;;6.57;3.30;;;19.00;99.90;;;;;;5049498;28;20212;-69
2022/08/21 04:38:25;;;;;;;6.43;3.27;;;19.00;99.90;;;;;;5048968;28;20196;-68
2022/08/21 04:40:53;;;;;;;3.20;2.90;;;19.00;99.90;;;;;;5049255;28;20219;-69
2022/08/21 04:43:21;;;;;;;3.50;2.73;;;19.00;99.90;;;;;;5048906;28;20231;-69
2022/08/21 04:45:49;;;;;;;5.43;3.03;;;18.90;99.90;;;;;;5049301;28;20215;-69
2022/08/21 04:48:21;;;;;;;4.87;2.90;;;18.90;99.90;;;;;;5049300;28;20216;-70
2022/08/21 04:50:53;;;;;;;4.87;2.83;;;18.90;99.90;;;;;;5048877;28;20291;-69
2022/08/21 04:53:25;;;;;;;4.30;3.07;;;19.00;99.90;;;;;;5048678;28;20575;-70
2022/08/21 04:55:52;;;;;;;4.90;2.80;;;18.90;99.90;;;;;;5048598;28;20203;-70
2022/08/21 04:58:22;;;;;;;4.90;3.07;;;19.00;99.90;;;;;;5048697;28;20216;-69
2022/08/21 05:00:49;;;;;;;6.10;3.13;;;19.00;99.90;;;;;;5048543;28;20212;-70
2022/08/21 05:03:18;;;;;;;5.60;3.10;;;18.90;99.90;;;;;;5048567;28;20205;-70
2022/08/21 05:05:45;;;;;;;6.73;3.27;;;18.90;99.90;;;;;;5048399;28;20973;-70
2022/08/21 05:08:16;;;;;;;6.80;2.73;;;18.90;99.90;;;;;;5048787;28;20299;-70
2022/08/21 05:10:44;;;;;;;6.73;3.13;;;18.90;99.90;;;;;;5048962;28;20219;-69
2022/08/21 05:13:12;;;;;;;6.73;2.70;;;18.90;99.90;;;;;;5048766;28;20208;-69
2022/08/21 05:15:39;;;;;;;6.53;2.70;;;19.00;99.90;;;;;;5047974;28;20697;-70
2022/08/21 05:18:06;;;;;;;5.77;2.70;;;19.00;99.90;;;;;;5048310;28;20727;-69
2022/08/21 05:20:35;;;;;;;2.87;2.47;;;19.00;99.90;;;;;;5048427;28;20307;-71
2022/08/21 05:23:07;;;;;;;3.33;2.63;;;19.00;99.90;;;;;;5048362;28;20667;-71
2022/08/21 05:25:34;;;;;;;6.87;2.70;;;19.00;99.90;;;;;;5048122;28;20198;-71
2022/08/21 05:28:01;;;;;;;3.37;2.77;;;19.00;99.90;;;;;;5048469;28;20664;-70
2022/08/21 05:30:28;;;;;;;5.33;2.53;;;19.00;99.90;;;;;;5047899;28;20204;-70
2022/08/21 05:32:57;;;;;;;5.33;2.57;;;19.00;99.90;;;;;;5048300;28;20238;-70
2022/08/21 05:35:24;;;;;;;2.90;2.70;;;19.00;99.90;;;;;;5047985;28;20204;-71
2022/08/21 05:37:52;;;;;;;5.73;2.77;;;18.90;99.90;;;;;;5027933;28;20294;-69
2022/08/21 05:40:19;;;;;;;3.87;2.53;;;18.90;99.90;;;;;;5046144;28;20212;-69
2022/08/21 05:42:46;;;;;;;7.43;3.03;;;18.90;99.90;;;;;;5047538;28;20235;-69
2022/08/21 05:45:13;;;;;;;4.17;2.63;;;18.90;99.90;;;;;;5047975;28;20208;-70
2022/08/21 05:47:40;;;;;;;4.50;2.80;;;18.90;99.90;;;;;;5047651;28;20204;-70
2022/08/21 05:50:07;;;;;;;4.07;2.57;;;18.90;99.90;;;;;;5047873;28;20247;-69
2022/08/21 05:52:34;;;;;;;4.43;2.70;;;19.00;99.90;;;;;;5047772;28;20553;-69
2022/08/21 05:55:02;;;;;;;8.80;2.70;;;19.00;99.90;;;;;;5047691;28;20207;-68
2022/08/21 05:57:29;;;;;;;5.43;2.60;;;19.00;99.90;;;;;;5047717;28;20243;-70
2022/08/21 05:59:56;;;;;;;5.87;2.73;;;18.90;99.90;;;;;;5047217;28;20212;-70
2022/08/21 06:02:23;;;;;;;2.50;2.30;;;19.00;99.90;;;;;;5047248;28;20200;-70
2022/08/21 06:04:49;;;;;;;4.50;2.30;;;19.00;99.90;;;;;;5047867;28;20212;-70
2022/08/21 06:07:16;;;;;;;7.47;2.60;;;19.00;99.90;;;;;;5046737;28;20211;-70
2022/08/21 06:09:43;;;;;;;5.50;2.33;;;19.00;99.90;;;;;;5047819;28;20214;-70
2022/08/21 06:12:13;;;;;;;4.77;2.40;;;19.00;99.90;;;;;;5047364;28;20238;-70
2022/08/21 06:14:41;;;;;;;4.73;2.70;;;19.10;99.90;;;;;;5047738;28;20317;-70
2022/08/21 06:17:11;;;;;;;4.73;2.33;;;19.10;99.90;;;;;;5047467;28;20585;-71
2022/08/21 06:19:38;;;;;;;5.03;2.40;;;19.10;99.90;;;;;;5047453;28;20215;-70
2022/08/21 06:22:05;;;;;;;4.17;2.20;;;19.20;99.90;;;;;;5047459;28;20658;-70
2022/08/21 06:24:32;;;;;;;3.53;2.13;;;19.20;99.90;;;;;;5047062;28;20564;-69
2022/08/21 06:27:04;;;;;;;3.80;2.13;;;19.20;99.90;;;;;;5047659;28;20650;-69
2022/08/21 06:29:33;;;;;;;4.03;2.20;;;19.20;99.90;;;;;;5047976;28;20196;-69
2022/08/21 06:31:59;;;;;;;4.40;2.53;;;19.30;99.90;;;;;;5047536;28;20228;-69
2022/08/21 06:34:26;;;;;;;9.13;2.50;;;19.30;99.90;;;;;;5047150;28;20654;-69
2022/08/21 06:36:53;;;;;;;6.23;2.67;;;19.30;99.90;;;;;;5047030;28;20239;-71
2022/08/21 06:39:20;;;;;;;4.37;2.60;;;19.30;99.90;;;;;;5047746;28;20200;-71
2022/08/21 06:41:48;;;;;;;6.07;2.30;;;19.30;99.90;;;;;;5047116;28;20224;-71
2022/08/21 06:44:18;;;;;;;5.50;2.37;;;19.30;99.90;;;;;;5046898;28;20664;-69
2022/08/21 06:46:46;;;;;;;4.93;2.37;;;19.30;99.90;;;;;;5047398;28;20208;-70
2022/08/21 06:49:13;;;;;;;2.20;2.00;;;19.40;99.90;;;;;;5047136;28;20704;-69
2022/08/21 06:51:39;;;;;;;3.70;2.27;;;19.50;99.90;;;;;;5047244;28;20207;-69
2022/08/21 06:54:07;;;;;;;3.73;2.20;;;19.50;99.90;;;;;;5047533;28;20211;-69
2022/08/21 06:56:35;;;;;;;8.00;2.73;;;19.50;99.90;;;;;;5047350;28;20226;-70
2022/08/21 06:59:02;;;;;;;5.27;2.90;;;19.50;99.90;;;;;;5045755;28;20238;-69
2022/08/21 07:01:28;;;;;;;5.80;2.33;;;19.40;99.90;;;;;;5046864;28;20206;-69
2022/08/21 07:03:56;;;;;;;4.27;2.13;;;19.40;99.90;;;;;;5047333;28;20219;-69
2022/08/21 07:06:24;;;;;;;5.87;2.33;;;19.40;99.90;;;;;;5047121;28;20307;-69
2022/08/21 07:08:50;;;;;;;3.73;2.10;;;19.50;99.90;;;;;;5046992;28;20212;-69
2022/08/21 07:11:20;;;;;;;4.97;2.23;;;19.50;99.90;;;;;;5047073;28;20300;-69
2022/08/21 07:13:48;;;;;;;4.23;2.00;;;19.60;99.90;;;;;;5047198;28;20219;-69
2022/08/21 07:16:15;;;;;;;5.97;2.50;;;19.60;99.90;;;;;;5046813;28;20208;-69
2022/08/21 07:18:41;;;;;;;6.60;3.07;;;19.70;99.90;;;;;;5048686;28;20786;-69
2022/08/21 07:21:11;;;;;;;3.37;2.37;;;19.70;99.90;;;;;;5050641;28;20201;-70
2022/08/21 07:23:41;;;;;;;2.27;1.97;;;19.70;99.90;;;;;;5049787;28;20208;-70
2022/08/21 07:26:09;;;;;;;7.77;2.27;;;19.70;99.90;;;;;;5047151;28;20199;-71
2022/08/21 07:28:36;;;;;;;6.17;2.33;;;19.80;99.90;;;;;;5049251;28;20196;-71
2022/08/21 07:31:06;;;;;;;6.33;2.27;;;19.80;99.90;;;;;;5049560;28;20200;-71
2022/08/21 07:33:34;;;;;;;5.90;1.90;;;19.80;99.90;;;;;;5047348;28;20220;-70
2022/08/21 07:36:07;;;;;;;3.30;1.80;;;19.80;99.90;;;;;;5049920;28;20200;-69
2022/08/21 07:38:37;;;;;;;3.67;1.80;;;19.80;99.90;;;;;;5046953;28;20220;-69
2022/08/21 07:41:14;;;;;;;5.53;2.27;;;19.80;99.90;;;;;;5047795;28;20239;-69
2022/08/21 07:43:41;;;;;;;3.47;1.67;;;19.90;99.90;;;;;;5041178;28;20215;-69
2022/08/21 07:46:08;;;;;;;7.53;2.03;;;20.00;99.90;;;;;;5047504;28;20204;-69
2022/08/21 07:48:35;;;;;;;3.87;1.90;;;20.10;99.90;;;;;;5047976;28;20651;-69
2022/08/21 07:51:06;;;;;;;4.27;2.03;;;20.20;99.90;;;;;;5048335;28;20385;-68
2022/08/21 07:53:34;;;;;;;4.27;1.90;;;20.20;99.90;;;;;;5046188;28;20202;-69
2022/08/21 07:56:04;;;;;;;3.60;1.73;;;20.30;99.90;;;;;;5033665;28;20212;-69
2022/08/21 07:58:31;;;;;;;3.43;1.80;;;20.30;99.90;;;;;;5047864;28;20232;-69
2022/08/21 08:00:58;;;;;;;4.60;1.97;;;20.40;99.90;;;;;;5047562;28;20685;-68
2022/08/21 08:03:25;;;;;;;4.50;1.90;;;20.40;99.90;;;;;;5048014;28;20211;-69
2022/08/21 08:05:52;;;;;;;3.83;2.93;;;20.50;99.90;;;;;;5048067;28;20208;-69
2022/08/21 08:08:19;;;;;;;4.57;1.87;;;20.60;99.90;;;;;;5047478;28;20204;-69
2022/08/21 08:10:49;;;;;;;3.43;1.80;;;20.60;99.90;;;;;;5048208;28;20208;-69
2022/08/21 08:13:16;;;;;;;3.97;2.10;;;20.70;99.90;;;;;;5047696;28;20254;-69
2022/08/21 08:15:43;;;;;;;4.60;2.30;;;20.70;99.90;;;;;;5047336;28;20215;-68
2022/08/21 08:18:09;;;;;;;3.93;1.87;;;20.80;99.90;;;;;;5047317;28;20252;-68
2022/08/21 08:20:36;;;;;;;3.37;1.80;;;20.80;99.90;;;;;;5047143;28;20208;-68
2022/08/21 08:23:04;;;;;;;3.20;2.00;;;20.90;99.90;;;;;;5047066;28;20208;-68
2022/08/21 08:25:31;;;;;;;5.73;2.23;;;21.00;99.90;;;;;;5047311;28;20662;-69
2022/08/21 08:27:59;;;;;;;6.10;2.10;;;21.00;99.90;;;;;;5047310;28;20232;-68
2022/08/21 08:30:26;;;;;;;4.67;1.80;;;21.00;99.90;;;;;;5045985;28;20574;-68
2022/08/21 08:32:52;;;;;;;5.83;2.23;;;21.10;99.90;;;;;;5047067;28;20798;-68
2022/08/21 08:35:19;;;;;;;5.90;1.97;;;21.10;99.90;;;;;;5047459;28;20674;-68
2022/08/21 08:37:46;;;;;;;4.30;2.10;;;21.10;99.90;;;;;;5047370;28;20338;-68
2022/08/21 08:40:18;;;;;;;4.43;1.70;;;21.20;99.90;;;;;;5046669;28;20200;-68
2022/08/21 08:42:47;;;;;;;5.67;1.80;;;21.40;99.90;;;;;;5041531;28;20247;-69
2022/08/21 08:45:19;;;;;;;3.93;1.87;;;21.30;99.90;;;;;;5047003;28;20231;-69
2022/08/21 08:47:57;;;;;;;4.50;2.10;;;21.30;99.90;;;;;;5046906;28;20295;-68
2022/08/21 08:50:28;;;;;;;2.67;1.60;;;21.30;99.90;;;;;;5047057;28;20689;-68
2022/08/21 08:53:01;;;;;;;2.97;2.30;;;21.40;99.90;;;;;;5047017;28;20204;-68
2022/08/21 08:55:34;;;;;;;3.27;2.03;;;21.40;99.90;;;;;;5047431;28;20196;-68
2022/08/21 08:58:03;;;;;;;6.17;2.13;;;21.40;99.90;;;;;;5047540;28;20222;-68
2022/08/21 09:00:32;;;;;;;6.53;2.30;;;21.40;99.90;;;;;;5046988;28;20214;-69
2022/08/21 09:03:01;;;;;;;8.73;2.40;;;21.50;99.90;;;;;;5047149;28;20207;-68
2022/08/21 09:05:30;;;;;;;3.33;1.93;;;21.50;99.90;;;;;;5046213;28;20577;-68
2022/08/21 09:08:21;;;;;;;3.93;1.90;;;21.60;99.90;;;;;;5046020;28;20207;-68
2022/08/21 09:10:58;;;;;;;3.95;1.75;;;21.70;99.90;;;;;;5046814;28;20216;-69
2022/08/21 09:13:41;;;;;;;6.20;1.92;;;21.70;99.90;;;;;;5046260;28;20932;-68
2022/08/21 09:16:21;;;;;;;6.80;2.00;;;21.80;99.90;;;;;;5047087;28;20203;-68
2022/08/21 09:18:59;;;;;;;2.30;1.92;;;21.90;99.90;;;;;;5046628;28;20315;-69
2022/08/21 09:21:32;;;;;;;3.45;2.08;;;21.90;99.90;;;;;;5045366;28;20188;-69
2022/08/21 09:24:02;;;;;;;3.63;1.80;;;22.00;99.90;;;;;;5043994;28;20254;-69
2022/08/21 09:26:37;;;;;;;4.73;2.03;;;22.00;99.90;;;;;;5039464;28;20204;-69
2022/08/21 09:29:05;;;;;;;3.85;1.38;;;22.10;99.90;;;;;;5045285;28;20298;-68
2022/08/21 09:31:37;;;;;;;2.20;1.60;;;22.10;99.90;;;;;;5043181;28;20204;-68
2022/08/21 09:34:05;;;;;;;3.80;1.50;;;22.20;99.90;;;;;;5035966;28;20242;-69
2022/08/21 09:36:38;;;;;;;3.42;1.50;;;22.20;99.90;;;;;;5043024;28;20214;-69
2022/08/21 09:39:05;;;;;;;10.93;1.77;;;22.20;99.90;;;;;;5045451;28;20228;-68
2022/08/21 09:41:35;;;;;;;7.45;2.40;;;22.20;99.90;;;;;;5045175;28;20281;-69
2022/08/21 09:44:03;;;;;;;5.38;2.05;;;22.20;99.90;;;;;;5046449;28;20266;-69
2022/08/21 09:46:29;;;;;;;7.85;1.70;;;22.30;99.90;;;;;;5045599;28;20572;-69
2022/08/21 09:49:01;;;;;;;4.13;1.88;;;22.30;99.90;;;;;;5029601;28;20768;-68
2022/08/21 09:51:30;;;;;;;2.60;1.77;;;22.30;99.90;;;;;;5045288;28;20204;-68
2022/08/21 09:54:11;;;;;;;5.18;1.58;;;22.40;99.90;;;;;;5045371;28;20208;-69
2022/08/21 09:59:31;;;;;;;4.70;2.08;;;22.40;99.90;;;;;;5044795;28;20235;-69
2022/08/21 10:02:01;;;;;;;2.33;1.50;;;22.50;99.90;;;;;;5045277;28;20721;-68
2022/08/21 10:04:33;;;;;;;1.92;1.42;;;22.50;99.90;;;;;;5045085;28;20230;-69
2022/08/21 10:07:10;;;;;;;1.83;1.70;;;22.50;99.90;;;;;;5042800;28;20197;-69
2022/08/21 10:09:37;;;;;;;2.65;1.67;;;22.60;99.90;;;;;;5045451;28;20212;-69
2022/08/21 10:12:14;;;;;;;3.85;1.90;;;22.60;99.90;;;;;;5044910;28;20743;-68
2022/08/21 10:14:52;;;;;;;3.47;1.90;;;22.60;99.90;;;;;;5040454;28;20669;-68
2022/08/21 10:17:25;;;;;;;3.15;1.75;;;22.70;99.90;;;;;;5045625;28;20204;-68
2022/08/21 10:20:03;;;;;;;4.38;1.92;;;22.70;99.90;;;;;;5045228;28;20230;-69
2022/08/21 10:22:39;;;;;;;2.85;1.52;;;22.80;99.90;;;;;;5044317;28;20704;-69
2022/08/21 10:25:12;;;;;;;4.95;1.90;;;22.90;99.90;;;;;;5044465;28;20704;-69
2022/08/21 10:27:47;;;;;;;4.28;1.83;;;22.90;99.90;;;;;;5044508;28;20203;-69
2022/08/21 10:30:20;;;;;;;3.58;1.75;;;23.10;99.90;;;;;;5049983;28;20583;-69
2022/08/21 10:33:00;;;;;;;3.13;1.40;;;23.20;99.90;;;;;;5045445;28;20223;-68
2022/08/21 10:35:32;;;;;;;4.80;2.38;;;23.30;99.90;;;;;;5037724;28;20204;-68
2022/08/21 10:38:32;;;;;;;2.20;1.60;;;23.40;99.90;;;;;;5044730;28;20285;-69
2022/08/21 10:41:10;;;;;;;3.10;1.85;;;23.40;99.90;;;;;;5041662;28;20244;-69
2022/08/21 10:43:48;;;;;;;3.13;1.48;;;23.40;99.90;;;;;;5045253;28;20207;-69
2022/08/21 10:46:37;;;;;;;3.47;1.55;;;23.40;99.90;;;;;;5044559;28;20200;-69
2022/08/21 10:49:14;;;;;;;4.60;1.60;;;23.50;99.90;;;;;;5029343;28;20307;-69
2022/08/21 10:51:51;;;;;;;1.33;1.23;;;23.60;99.90;;;;;;5045696;28;20203;-69
2022/08/21 10:54:30;;;;;;;7.78;1.40;;;23.60;99.90;;;;;;5047801;28;20200;-69
2022/08/21 10:57:02;;;;;;;3.95;1.65;;;23.70;99.90;;;;;;5036821;28;20303;-69
2022/08/21 10:59:33;;;;;;;2.58;1.13;;;23.80;99.90;;;;;;5048612;28;20228;-69
2022/08/21 11:02:09;;;;;;;2.58;1.40;;;24.00;99.90;;;;;;5048494;28;20294;-69
2022/08/21 11:04:43;;;;;;;3.00;1.45;;;24.00;99.90;;;;;;5048138;28;20210;-69
2022/08/21 11:07:19;;;;;;;3.83;1.60;;;24.10;99.90;;;;;;5048520;28;20207;-69
2022/08/21 11:09:50;;;;;;;6.07;1.60;;;24.30;99.90;;;;;;5048041;28;20230;-69
2022/08/21 11:12:23;;;;;;;2.30;1.40;;;24.40;99.90;;;;;;5048236;28;20226;-69
2022/08/21 11:15:01;;;;;;;3.35;1.67;;;24.50;99.90;;;;;;5048146;28;20216;-69
2022/08/21 11:17:34;;;;;;;4.47;1.60;;;24.60;99.90;;;;;;5047968;28;20206;-69
2022/08/21 11:20:08;;;;;;;4.18;1.63;;;24.60;99.90;;;;;;5047563;28;20721;-69
2022/08/21 11:22:41;;;;;;;2.40;1.40;;;24.70;99.90;;;;;;5047727;28;20231;-68
2022/08/21 11:25:18;;;;;;;3.85;1.70;;;24.60;99.90;;;;;;5047551;28;20666;-69
2022/08/21 11:27:48;;;;;;;5.22;1.52;;;24.50;99.90;;;;;;5058888;28;20661;-69
2022/08/21 11:30:15;;;;;;;2.30;1.63;;;24.40;99.90;;;;;;5053968;28;20204;-69
2022/08/21 11:33:06;;;;;;;1.90;1.30;;;24.30;99.90;;;;;;5048334;28;20306;-69
2022/08/21 11:35:40;;;;;;;4.63;1.63;;;24.40;99.90;;;;;;5048606;28;20204;-69
2022/08/21 11:38:22;;;;;;;5.05;1.63;;;24.50;99.90;;;;;;5048348;28;20601;-68
2022/08/21 11:41:04;;;;;;;3.35;1.48;;;24.60;99.90;;;;;;5047693;28;20215;-69
2022/08/21 11:43:38;;;;;;;4.35;1.60;;;24.70;99.90;;;;;;5047821;28;20573;-69
2022/08/21 11:46:15;;;;;;;1.75;1.50;;;24.80;99.90;;;;;;5047111;28;21028;-69
2022/08/21 11:48:54;;;;;;;3.70;1.90;;;24.90;99.90;;;;;;5047613;28;20204;-69
2022/08/21 11:51:25;;;;;;;2.58;1.70;;;25.00;99.90;;;;;;5040993;28;20197;-69
2022/08/21 11:54:03;;;;;;;3.03;1.55;;;25.10;99.90;;;;;;5027895;28;20670;-69
2022/08/21 11:56:34;;;;;;;2.20;1.52;;;25.20;99.90;;;;;;5044094;28;20239;-69
2022/08/21 11:59:05;;;;;;;1.88;1.58;;;25.20;99.20;;;;;;5031871;28;20216;-69
2022/08/21 12:01:37;;;;;;;3.40;1.83;;;25.30;99.50;;;;;;5047593;28;20219;-69
2022/08/21 12:04:09;;;;;;;3.95;1.58;;;25.50;99.60;;;;;;5047317;28;20212;-69
2022/08/21 12:06:38;;;;;;;2.15;1.77;;;25.60;99.10;;;;;;5047016;28;20581;-69
2022/08/21 12:09:09;;;;;;;4.95;2.10;;;25.80;99.50;;;;;;5047153;28;20212;-69
2022/08/21 12:11:47;;;;;;;3.03;1.77;;;25.90;99.70;;;;;;5047821;28;20219;-69
2022/08/21 12:14:16;;;;;;;2.58;1.60;;;26.10;99.00;;;;;;5047715;28;20239;-69
2022/08/21 12:16:45;;;;;;;3.28;1.88;;;26.10;98.80;;;;;;5047311;28;20215;-69
2022/08/21 12:19:14;;;;;;;3.53;1.63;;;26.20;98.80;;;;;;5047091;28;20231;-69
2022/08/21 12:21:50;;;;;;;4.95;1.95;;;26.20;98.10;;;;;;5046467;28;20212;-69
2022/08/21 12:24:31;;;;;;;2.47;1.90;;;26.20;98.50;;;;;;5046879;28;21047;-69
2022/08/21 12:27:01;;;;;;;2.65;2.00;;;26.40;99.60;;;;;;5047081;28;20215;-69
2022/08/21 12:29:31;;;;;;;3.45;1.92;;;26.50;98.20;;;;;;5046680;28;20210;-69
2022/08/21 12:32:01;;;;;;;3.70;1.50;;;26.60;98.80;;;;;;5046542;28;20796;-69
2022/08/21 12:34:38;;;;;;;3.80;1.92;;;26.70;98.60;;;;;;5046968;28;20207;-69
2022/08/21 12:37:20;;;;;;;5.95;2.00;;;26.90;99.10;;;;;;5031811;28;20979;-69
2022/08/21 12:39:52;;;;;;;3.90;1.95;;;27.00;99.10;;;;;;5046915;28;20228;-69
2022/08/21 12:42:21;;;;;;;3.83;2.00;;;26.90;98.20;;;;;;5047161;28;20238;-69
2022/08/21 12:44:53;;;;;;;3.40;2.00;;;26.70;97.20;;;;;;5047085;28;20207;-69
2022/08/21 12:47:44;;;;;;;3.80;1.90;;;26.70;98.10;;;;;;5047696;28;20204;-69
2022/08/21 12:50:15;;;;;;;3.70;1.85;;;26.80;98.10;;;;;;5047561;28;20208;-69
2022/08/21 12:52:49;;;;;;;3.17;1.67;;;26.80;97.90;;;;;;5047354;28;20291;-69
2022/08/21 12:55:27;;;;;;;6.68;1.92;;;26.80;97.70;;;;;;5047127;28;20212;-69
2022/08/21 12:57:54;;;;;;;3.03;1.80;;;26.70;97.90;;;;;;5047044;28;20210;-69
2022/08/21 13:00:23;;;;;;;3.40;2.03;;;26.50;98.30;;;;;;5046449;28;20251;-69
2022/08/21 13:02:52;;;;;;;5.10;1.70;;;26.30;98.20;;;;;;5046363;28;20220;-69